Bluff, Alabama
Current Conditions -  °F | °C
As of 11:15 AM on Friday 19 Dec 2014 (Local Time) from KJFX Reporting Station
Clear Clear  
Wind Chill: 46°   Ceiling: Unl
Heat Index: 48°   Visibility: 10mi
Dew Point: 36°   Wind: 5mph
Humidity: 62%   Direction: 50°NE
Pressure: 30.22"   Gusts: NA
Location:  33.6949°N, 87.8413°W
Report Text: KJFX 191715Z AUTO 05004KT 10SM CLR 09/02 A3022 RMK A02 P-128
Loading
Personal Weather Stations






























Interactive Weather Map New forecast layout! Learn more

10-Day Weather Forecast

Advertisements
Track Severe Weather on mobile